Time;durP1;ratioP1;P1;durP2;ratioP2;P2;SDS_P1;SDS_P2;PMS_P1;PMS_P2;Temp;Humidity;BMP_temperature;BMP_pressure;BME280_temperature;BME280_humidity;BME280_pressure;Samples;Min_cycle;Max_cycle;Signal;HPM_P1;HPM_P2
2020/12/12 00:01:20;;;;;;;36.88;19.32;;;;;;;-1.97;94.08;100088.94;1717876;82;21512;-52
2020/12/12 00:03:48;;;;;;;31.80;18.05;;;;;;;-1.96;93.93;100081.48;1718411;82;21143;-52
2020/12/12 00:09:08;;;;;;;38.02;20.25;;;;;;;-1.92;93.90;100085.48;1746718;79;22958;-51
2020/12/12 00:11:36;;;;;;;42.53;21.23;;;;;;;-1.98;94.02;100085.42;1746453;80;21045;-51
2020/12/12 00:14:03;;;;;;;35.88;18.62;;;;;;;-1.97;94.03;100078.38;1745962;82;21395;-52
2020/12/12 00:16:31;;;;;;;42.83;21.35;;;;;;;-1.95;94.09;100084.57;1744531;80;21659;-53
2020/12/12 00:19:00;;;;;;;33.60;19.15;;;;;;;-1.96;94.12;100076.20;1745444;82;20982;-53
2020/12/12 00:21:28;;;;;;;37.40;19.67;;;;;;;-1.94;94.20;100081.05;1746504;82;20974;-49
2020/12/12 00:23:55;;;;;;;36.28;18.75;;;;;;;-1.92;94.26;100076.64;1716099;82;21118;-51
2020/12/12 00:26:26;;;;;;;37.50;19.10;;;;;;;-1.89;94.30;100079.31;1746166;80;22267;-53
2020/12/12 00:28:55;;;;;;;35.05;18.40;;;;;;;-1.90;94.31;100072.27;1744657;81;21029;-52
2020/12/12 00:31:22;;;;;;;34.38;17.85;;;;;;;-1.89;94.29;100066.09;1746210;80;21030;-51
2020/12/12 00:33:50;;;;;;;35.15;18.70;;;;;;;-1.87;94.33;100070.50;1743800;82;21168;-50
2020/12/12 00:36:18;;;;;;;32.25;16.93;;;;;;;-1.82;94.36;100070.97;1745590;81;21132;-50
2020/12/12 00:38:46;;;;;;;32.48;17.77;;;;;;;-1.81;94.25;100056.46;1743921;82;20985;-50
2020/12/12 00:41:14;;;;;;;33.35;17.82;;;;;;;-1.79;94.24;100057.34;1744418;82;21164;-51
2020/12/12 00:43:42;;;;;;;29.60;17.32;;;;;;;-1.78;94.25;100059.09;1744680;80;21668;-53
2020/12/12 00:46:09;;;;;;;34.65;18.20;;;;;;;-1.77;94.27;100052.93;1744844;81;21104;-50
2020/12/12 00:48:37;;;;;;;29.12;16.95;;;;;;;-1.75;94.31;100055.16;1745803;82;21097;-52
2020/12/12 00:51:05;;;;;;;29.77;17.10;;;;;;;-1.74;94.27;100051.63;1746169;80;21366;-51
2020/12/12 00:53:33;;;;;;;33.98;17.55;;;;;;;-1.72;94.27;100052.95;1745705;82;21184;-50
2020/12/12 00:56:01;;;;;;;33.95;17.15;;;;;;;-1.70;94.31;100053.86;1744788;80;21017;-50
2020/12/12 00:58:29;;;;;;;37.98;18.52;;;;;;;-1.68;94.25;100051.66;1745511;82;21129;-49
2020/12/12 01:00:56;;;;;;;35.28;19.10;;;;;;;-1.66;94.19;100045.92;1745798;80;21038;-49
2020/12/12 01:03:24;;;;;;;38.20;19.25;;;;;;;-1.64;94.18;100051.23;1745936;82;21371;-50
2020/12/12 01:05:52;;;;;;;31.97;17.92;;;;;;;-1.66;94.16;100040.63;1745395;80;21172;-50
2020/12/12 01:08:20;;;;;;;33.00;18.60;;;;;;;-1.64;94.19;100038.90;1738834;81;21019;-50
2020/12/12 01:10:47;;;;;;;35.63;19.27;;;;;;;-1.64;94.20;100043.31;1733270;82;20987;-50
2020/12/12 01:13:15;;;;;;;36.55;19.37;;;;;;;-1.65;94.24;100041.10;1732204;82;21101;-49
2020/12/12 01:15:43;;;;;;;34.58;19.17;;;;;;;-1.62;94.42;100047.70;1732575;82;22236;-50
2020/12/12 01:18:12;;;;;;;39.05;19.82;;;;;;;-1.62;94.35;100042.42;1732015;82;21672;-50
2020/12/12 01:20:40;;;;;;;41.28;18.20;;;;;;;-1.59;94.36;100042.44;1732368;82;21018;-50
2020/12/12 01:23:08;;;;;;;37.15;20.70;;;;;;;-1.54;94.31;100040.26;1732230;82;21676;-50
2020/12/12 01:25:37;;;;;;;37.67;18.75;;;;;;;-1.51;94.22;100041.58;1732506;81;21227;-53
2020/12/12 01:28:06;;;;;;;37.58;20.15;;;;;;;-1.48;94.03;100048.21;1732762;82;22692;-51
2020/12/12 01:30:35;;;;;;;35.55;19.82;;;;;;;-1.47;93.90;100049.52;1731504;81;21629;-50
2020/12/12 01:33:03;;;;;;;38.53;19.67;;;;;;;-1.45;93.72;100046.87;1731681;82;20998;-49
2020/12/12 01:35:31;;;;;;;36.85;20.92;;;;;;;-1.47;93.65;100036.30;1729947;82;21109;-49
2020/12/12 01:37:59;;;;;;;40.30;19.42;;;;;;;-1.44;93.70;100030.13;1731461;82;21567;-53
2020/12/12 01:40:27;;;;;;;33.48;19.57;;;;;;;-1.44;93.52;100038.97;1731479;82;21465;-51
2020/12/12 01:42:55;;;;;;;37.85;18.73;;;;;;;-1.44;93.49;100040.70;1732417;82;21141;-51
2020/12/12 01:45:24;;;;;;;35.35;20.68;;;;;;;-1.42;93.50;100038.97;1732293;82;21023;-52
2020/12/12 01:47:52;;;;;;;37.00;19.30;;;;;;;-1.43;93.29;100031.91;1731024;82;21181;-50
2020/12/12 01:50:20;;;;;;;35.05;18.65;;;;;;;-1.44;93.15;100038.05;1712083;82;21598;-49
2020/12/12 01:52:50;;;;;;;36.98;19.87;;;;;;;-1.46;93.21;100041.15;1732107;81;21385;-49
2020/12/12 01:55:22;;;;;;;32.33;18.45;;;;;;;-1.46;93.22;100045.12;1732017;81;21153;-51
2020/12/12 01:57:54;;;;;;;37.85;20.52;;;;;;;-1.46;93.22;100045.12;1731918;81;20944;-51
2020/12/12 02:00:22;;;;;;;;;;;;;;;-1.47;93.23;100032.78;1732010;81;21539;-52
2020/12/12 02:02:55;;;;;;;41.18;21.75;;;;;;;-1.45;93.20;100038.94;1730589;82;20245;-52
2020/12/12 02:05:38;;;;;;;33.80;19.70;;;;;;;-1.49;93.03;100034.52;1730926;81;21293;-52
2020/12/12 02:08:08;;;;;;;;;;;;;;;-1.51;93.10;100045.09;1734069;82;21642;-52
2020/12/12 02:10:36;;;;;;;32.50;18.42;;;;;;;-1.51;92.96;100031.00;1729588;82;20308;-52
2020/12/12 02:13:04;;;;;;;36.90;19.73;;;;;;;-1.54;92.90;100039.81;1730808;82;21149;-52
2020/12/12 02:15:32;;;;;;;34.43;19.55;;;;;;;-1.55;92.88;100047.72;1731841;82;21142;-52
2020/12/12 02:18:00;;;;;;;32.30;17.17;;;;;;;-1.54;92.87;100033.65;1731283;82;21277;-51
2020/12/12 02:20:28;;;;;;;33.78;16.85;;;;;;;-1.54;92.79;100041.58;1732282;81;21118;-54
2020/12/12 02:22:56;;;;;;;33.88;18.55;;;;;;;-1.55;92.66;100039.34;1732630;82;21019;-52
2020/12/12 02:25:24;;;;;;;39.92;20.12;;;;;;;-1.56;92.58;100033.63;1732958;82;20981;-52
2020/12/12 02:27:56;;;;;;;38.80;18.75;;;;;;;-1.55;92.56;100034.50;1696322;83;21601;-52
2020/12/12 02:30:22;;;;;;;36.40;19.12;;;;;;;-1.57;92.54;100033.63;1690936;83;21413;-52
2020/12/12 02:32:49;;;;;;;37.73;20.25;;;;;;;-1.60;92.55;100029.19;1692405;84;21113;-52
2020/12/12 02:35:18;;;;;;;40.05;18.40;;;;;;;-1.63;92.52;100027.44;1692706;83;21164;-52
2020/12/12 02:37:45;;;;;;;33.73;18.42;;;;;;;-1.64;92.48;100028.77;1690987;83;21692;-53
2020/12/12 02:40:13;;;;;;;36.00;19.75;;;;;;;-1.66;92.34;100031.38;1732139;81;21129;-50
2020/12/12 02:42:41;;;;;;;38.02;20.23;;;;;;;-1.68;92.33;100025.66;1730700;82;21390;-50
2020/12/12 02:45:11;;;;;;;39.18;19.70;;;;;;;-1.67;92.29;100029.62;1731135;81;21042;-49
2020/12/12 02:47:40;;;;;;;34.67;19.05;;;;;;;-1.64;92.11;100025.67;1730287;82;21128;-50
2020/12/12 02:50:11;;;;;;;30.92;18.50;;;;;;;-1.67;91.75;100029.62;1729478;82;21141;-50
2020/12/12 02:52:39;;;;;;;34.03;18.32;;;;;;;-1.73;91.74;100020.34;1730469;81;21037;-50
2020/12/12 02:55:09;;;;;;;31.52;17.57;;;;;;;-1.75;91.78;100031.38;1728100;82;21212;-49
2020/12/12 02:57:37;;;;;;;35.03;18.50;;;;;;;-1.79;91.79;100024.30;1730231;82;21038;-48
2020/12/12 03:00:12;;;;;;;33.13;18.50;;;;;;;-1.81;91.70;100021.19;1732307;82;21161;-49
2020/12/12 03:02:39;;;;;;;36.05;18.17;;;;;;;-1.83;91.75;100020.31;1730358;82;20967;-48
2020/12/12 03:05:08;;;;;;;33.92;17.90;;;;;;;-1.88;91.84;100017.64;1730076;81;21089;-54
2020/12/12 03:07:36;;;;;;;29.82;17.67;;;;;;;-1.87;91.79;100024.69;1728818;82;21435;-50
2020/12/12 03:10:06;;;;;;;36.35;18.50;;;;;;;-1.87;91.78;100014.12;1743277;81;21462;-49
2020/12/12 03:12:35;;;;;;;34.90;18.62;;;;;;;-1.88;91.73;100017.64;1744679;82;20998;-49
2020/12/12 03:15:05;;;;;;;35.10;18.32;;;;;;;-1.88;91.79;100013.67;1745178;82;20994;-49
2020/12/12 03:17:32;;;;;;;37.00;18.95;;;;;;;-1.90;91.69;100024.70;1743338;82;21074;-51
2020/12/12 03:20:00;;;;;;;34.00;17.50;;;;;;;-1.91;91.79;100017.65;1742451;82;22286;-52
2020/12/12 03:22:28;;;;;;;35.90;17.70;;;;;;;-1.93;91.79;100022.91;1743279;82;21146;-52
2020/12/12 03:24:56;;;;;;;32.95;17.10;;;;;;;-1.93;91.69;100025.55;1744041;80;21160;-52
2020/12/12 03:27:24;;;;;;;34.63;18.17;;;;;;;-1.94;91.74;100029.52;1742638;82;21165;-51
2020/12/12 03:29:52;;;;;;;34.58;16.73;;;;;;;-1.96;91.76;100024.67;1744399;80;21574;-49
2020/12/12 03:32:21;;;;;;;29.92;17.00;;;;;;;-1.96;91.76;100027.31;1744339;82;21358;-50
2020/12/12 03:34:50;;;;;;;28.17;16.85;;;;;;;-1.98;91.74;100031.69;1742292;82;21160;-52
2020/12/12 03:37:18;;;;;;;31.82;17.23;;;;;;;-1.99;91.74;100028.61;1744136;82;21120;-51
2020/12/12 03:39:45;;;;;;;34.90;18.55;;;;;;;-1.99;91.71;100020.68;1745110;80;20986;-53
2020/12/12 03:42:14;;;;;;;31.15;16.48;;;;;;;-2.00;91.65;100028.17;1745621;80;21434;-52
2020/12/12 03:44:42;;;;;;;31.02;16.90;;;;;;;-1.97;91.56;100025.52;1742487;82;21390;-52
2020/12/12 03:47:10;;;;;;;31.85;16.32;;;;;;;-2.00;91.50;100030.81;1742630;82;21124;-49
2020/12/12 03:49:38;;;;;;;43.85;18.25;;;;;;;-2.00;91.66;100033.45;1743538;81;21022;-49
2020/12/12 03:52:06;;;;;;;35.05;18.62;;;;;;;-2.02;91.63;100032.58;1745853;82;21362;-50
2020/12/12 03:54:34;;;;;;;33.75;17.87;;;;;;;-2.01;91.51;100031.69;1744809;82;20990;-48
2020/12/12 03:57:12;;;;;;;37.80;18.20;;;;;;;-1.99;91.34;100023.32;1819435;75;22245;-48
2020/12/12 03:59:40;;;;;;;31.12;17.65;;;;;;;-2.09;91.31;100028.11;1819711;76;21402;-49
2020/12/12 04:02:08;;;;;;;38.17;18.17;;;;;;;-2.13;91.50;100037.36;1791996;77;21376;-48
2020/12/12 04:04:36;;;;;;;30.90;17.85;;;;;;;-2.12;91.68;100035.16;1788299;77;21005;-49
2020/12/12 04:07:04;;;;;;;30.48;17.48;;;;;;;-2.09;91.61;100041.33;1786710;77;21040;-49
2020/12/12 04:09:33;;;;;;;32.90;16.62;;;;;;;-2.13;91.51;100036.05;1786837;77;21033;-49
2020/12/12 04:12:01;;;;;;;31.65;17.50;;;;;;;-2.14;91.58;100028.97;1787955;77;20930;-51
2020/12/12 04:14:29;;;;;;;36.17;19.27;;;;;;;-2.14;91.67;100028.97;1787458;77;21141;-49
2020/12/12 04:16:57;;;;;;;33.35;17.70;;;;;;;-2.16;91.54;100030.73;1787497;77;21147;-50
2020/12/12 04:19:25;;;;;;;31.90;17.17;;;;;;;-2.21;91.37;100036.42;1795476;77;21007;-48
2020/12/12 04:21:52;;;;;;;34.13;17.27;;;;;;;-2.24;91.45;100035.06;1786911;77;21104;-48
2020/12/12 04:24:20;;;;;;;34.65;17.92;;;;;;;-2.23;91.58;100021.45;1788796;77;21108;-51
2020/12/12 04:26:48;;;;;;;33.02;17.60;;;;;;;-2.26;91.51;100025.38;1793258;77;21347;-52
2020/12/12 04:29:16;;;;;;;37.00;16.67;;;;;;;-2.28;91.51;100031.98;1796638;77;21049;-54
2020/12/12 04:31:44;;;;;;;33.18;17.42;;;;;;;-2.29;91.45;100022.71;1791697;77;21631;-53
2020/12/12 04:34:13;;;;;;;33.33;16.17;;;;;;;-2.35;91.54;100026.20;1790929;77;21931;-53
2020/12/12 04:36:41;;;;;;;34.45;16.87;;;;;;;-2.36;91.72;100020.48;1788187;77;22077;-48
2020/12/12 04:39:10;;;;;;;30.45;17.00;;;;;;;-2.39;91.73;100005.95;1786589;77;22320;-48
2020/12/12 04:41:37;;;;;;;32.10;16.95;;;;;;;-2.43;91.65;100012.96;1786118;77;21151;-52
2020/12/12 04:44:05;;;;;;;27.30;15.88;;;;;;;-2.47;91.73;100026.13;1791500;77;21021;-50
2020/12/12 04:46:33;;;;;;;36.25;16.93;;;;;;;-2.48;91.52;100019.09;1763930;77;21152;-50
2020/12/12 04:49:01;;;;;;;36.58;18.98;;;;;;;-2.49;91.16;100031.41;1789301;77;21132;-50
2020/12/12 04:51:30;;;;;;;36.48;18.57;;;;;;;-2.49;90.98;100025.25;1789151;77;21478;-50
2020/12/12 04:53:59;;;;;;;36.45;19.20;;;;;;;-2.53;90.84;100020.81;1787632;77;21565;-51
2020/12/12 04:56:26;;;;;;;35.38;18.67;;;;;;;-2.55;90.89;100012.02;1794684;76;21162;-52
2020/12/12 04:58:54;;;;;;;36.95;18.37;;;;;;;-2.60;90.09;100016.37;1804152;76;21687;-52
2020/12/12 05:01:22;;;;;;;30.08;16.97;;;;;;;-2.65;89.40;100022.50;1807319;76;20922;-52
2020/12/12 05:03:50;;;;;;;32.15;17.12;;;;;;;-2.72;89.25;100001.31;1804843;76;21357;-53
2020/12/12 05:06:18;;;;;;;24.15;14.75;;;;;;;-2.76;88.88;100003.06;1779506;76;20989;-50
2020/12/12 05:08:46;;;;;;;29.18;15.88;;;;;;;-2.80;88.65;100013.58;1801107;77;21126;-51
2020/12/12 05:11:14;;;;;;;36.73;16.50;;;;;;;-2.85;88.53;100012.22;1799465;77;21647;-51
2020/12/12 05:13:42;;;;;;;34.35;17.60;;;;;;;-2.86;88.58;100010.45;1745854;78;21516;-51
2020/12/12 05:16:10;;;;;;;27.58;14.13;;;;;;;-2.88;88.57;100009.55;1753178;77;22184;-52
2020/12/12 05:18:38;;;;;;;25.35;15.38;;;;;;;-2.87;88.78;100007.38;1802801;77;21158;-51
2020/12/12 05:21:06;;;;;;;30.92;17.62;;;;;;;-2.86;88.85;99999.91;1732318;78;21139;-51
2020/12/12 05:23:33;;;;;;;26.82;14.60;;;;;;;-2.85;88.92;100002.98;1797931;78;21568;-50
2020/12/12 05:26:01;;;;;;;27.15;15.60;;;;;;;-2.82;89.02;100000.38;1750712;77;21103;-52
2020/12/12 05:28:29;;;;;;;32.35;17.10;;;;;;;-2.80;88.94;100001.27;1803838;76;21564;-51
2020/12/12 05:30:59;;;;;;;26.80;15.53;;;;;;;-2.83;88.86;99998.59;1801421;77;21230;-50
2020/12/12 05:33:27;;;;;;;29.15;15.65;;;;;;;-2.87;88.98;99998.14;1803416;76;20977;-49
2020/12/12 05:35:55;;;;;;;25.88;16.17;;;;;;;-2.87;89.08;100006.06;1804427;77;21028;-52
2020/12/12 05:38:23;;;;;;;23.75;15.28;;;;;;;-2.81;89.11;100001.27;1803797;76;20949;-52
2020/12/12 05:40:55;;;;;;;29.70;15.32;;;;;;;-2.76;88.83;99995.59;1800105;77;21372;-53
2020/12/12 05:43:33;;;;;;;27.95;16.02;;;;;;;-2.76;88.64;100004.38;1805145;76;20949;-54
2020/12/12 05:46:00;;;;;;;32.17;16.00;;;;;;;-2.77;88.41;100003.95;1804198;77;21206;-52
2020/12/12 05:48:29;;;;;;;28.35;16.42;;;;;;;-2.78;88.37;100010.06;1807910;76;20985;-50
2020/12/12 05:50:56;;;;;;;23.70;15.08;;;;;;;-2.83;88.46;100001.67;1809358;77;21088;-50
2020/12/12 05:53:24;;;;;;;30.27;17.02;;;;;;;-2.87;88.43;100004.74;1799681;77;21373;-50
2020/12/12 05:55:56;;;;;;;28.55;17.23;;;;;;;-2.87;88.57;100002.10;1800277;76;21502;-51
2020/12/12 05:58:24;;;;;;;34.50;20.43;;;;;;;-2.87;88.53;99992.87;1785244;77;21017;-49
2020/12/12 06:00:53;;;;;;;26.97;16.15;;;;;;;-2.92;88.08;99994.59;1752098;80;21179;-50
2020/12/12 06:03:32;;;;;;;33.88;17.62;;;;;;;-2.98;87.76;100002.45;1752736;80;21526;-51
2020/12/12 06:06:06;;;;;;;47.50;20.95;;;;;;;-3.04;87.59;99986.55;1742176;81;22095;-51
2020/12/12 06:08:38;;;;;;;34.08;18.95;;;;;;;-3.07;87.49;99990.06;1785350;78;21155;-52
2020/12/12 06:11:08;;;;;;;39.40;20.08;;;;;;;-3.06;87.59;100004.13;1795792;77;21159;-53
2020/12/12 06:13:37;;;;;;;35.43;18.95;;;;;;;-3.07;87.53;100003.25;1791780;78;20974;-56
2020/12/12 06:16:07;;;;;;;36.20;19.62;;;;;;;-3.07;87.69;100003.69;1798108;77;21403;-52
2020/12/12 06:18:49;;;;;;;45.28;22.13;;;;;;;-3.07;87.80;99997.09;1791231;79;21449;-54
2020/12/12 06:21:17;;;;;;;46.18;22.90;;;;;;;-3.07;87.89;99998.41;1786892;79;21557;-54
2020/12/12 06:23:45;;;;;;;42.48;21.77;;;;;;;-3.08;88.07;100005.45;1789785;79;21001;-52
2020/12/12 06:26:12;;;;;;;43.50;22.98;;;;;;;-3.09;88.26;100002.77;1783486;79;20962;-51
2020/12/12 06:28:42;;;;;;;47.58;23.80;;;;;;;-3.06;88.32;100009.41;1714165;79;20906;-56
2020/12/12 06:31:12;;;;;;;46.10;24.05;;;;;;;-3.06;88.31;100000.17;1767738;78;21482;-51
2020/12/12 06:33:52;;;;;;;37.73;19.62;;;;;;;-3.08;88.34;100004.56;1784415;79;22606;-52
2020/12/12 06:36:32;;;;;;;39.05;21.05;;;;;;;-2.99;88.41;100001.98;1803016;76;22838;-52
2020/12/12 06:39:23;;;;;;;37.78;20.32;;;;;;;-3.02;88.22;99995.38;1784830;77;21001;-54
2020/12/12 06:41:55;;;;;;;38.20;19.82;;;;;;;-3.05;88.14;99992.27;1783017;79;21377;-51
2020/12/12 06:44:41;;;;;;;37.70;20.43;;;;;;;-3.00;88.27;99987.03;1801084;78;22683;-52
2020/12/12 06:47:09;;;;;;;46.70;22.05;;;;;;;-3.06;88.20;99992.27;1772426;79;21116;-52
2020/12/12 06:49:41;;;;;;;37.48;20.27;;;;;;;-3.07;88.14;99981.27;1773594;79;21450;-53
2020/12/12 06:52:07;;;;;;;36.85;19.27;;;;;;;-3.09;88.10;99981.67;1773969;80;21679;-52
2020/12/12 06:54:35;;;;;;;33.83;20.62;;;;;;;-3.09;88.28;99989.17;1773233;79;20989;-51
2020/12/12 06:57:04;;;;;;;38.17;19.80;;;;;;;-3.05;88.32;99983.47;1771087;79;20989;-51
2020/12/12 06:59:37;;;;;;;40.25;21.55;;;;;;;-3.02;88.25;99986.14;1771332;80;21461;-51
2020/12/12 07:02:06;;;;;;;35.85;20.77;;;;;;;-3.00;88.33;99981.75;1769085;79;21874;-51
2020/12/12 07:04:36;;;;;;;39.45;21.23;;;;;;;-2.99;88.40;99987.47;1772209;79;21167;-52
2020/12/12 07:07:10;;;;;;;41.23;22.02;;;;;;;-2.98;88.56;99977.39;1771813;79;21002;-52
2020/12/12 07:09:39;;;;;;;41.15;22.73;;;;;;;-2.97;88.61;99976.52;1773045;79;21010;-52
2020/12/12 07:12:08;;;;;;;40.67;21.50;;;;;;;-2.97;88.68;99982.67;1773855;79;21129;-51
2020/12/12 07:14:37;;;;;;;37.28;21.37;;;;;;;-2.96;88.69;99979.59;1773014;79;21347;-52
2020/12/12 07:17:06;;;;;;;33.98;19.85;;;;;;;-2.94;88.69;99971.24;1771363;79;21112;-52
2020/12/12 07:19:40;;;;;;;39.45;21.33;;;;;;;-2.91;88.70;99976.56;1773303;79;20959;-52
2020/12/12 07:22:11;;;;;;;42.48;21.60;;;;;;;-2.88;88.68;99973.92;1772846;79;21001;-52
2020/12/12 07:24:39;;;;;;;36.70;20.10;;;;;;;-2.87;88.62;99970.44;1769846;79;21026;-52
2020/12/12 07:27:07;;;;;;;38.05;20.57;;;;;;;-2.88;88.52;99964.69;1770473;79;22367;-51
2020/12/12 07:29:35;;;;;;;41.73;21.20;;;;;;;-2.89;88.70;99966.88;1771646;79;21546;-52
2020/12/12 07:32:04;;;;;;;37.03;21.23;;;;;;;-2.88;88.89;99963.37;1770664;79;21159;-51
2020/12/12 07:34:32;;;;;;;32.25;17.27;;;;;;;-2.88;88.92;99966.00;1768179;79;22057;-51
2020/12/12 07:37:04;;;;;;;35.40;18.77;;;;;;;-2.84;89.06;99971.77;1769646;79;21144;-52
2020/12/12 07:39:40;;;;;;;38.92;21.52;;;;;;;-2.83;88.83;99964.28;1770330;79;21274;-51
2020/12/12 07:42:10;;;;;;;47.53;23.18;;;;;;;-2.81;88.77;99966.96;1771661;79;21663;-52
2020/12/12 07:44:40;;;;;;;62.65;26.23;;;;;;;-2.79;88.81;99963.44;1760022;79;21149;-52
2020/12/12 07:47:10;;;;;;;45.63;21.48;;;;;;;-2.77;88.92;99961.72;1758998;81;21748;-55
2020/12/12 07:49:38;;;;;;;41.25;21.65;;;;;;;-2.76;88.81;99960.84;1758225;79;21100;-57
2020/12/12 07:52:10;;;;;;;42.48;21.57;;;;;;;-2.75;88.74;99962.59;1759805;79;22333;-53
2020/12/12 07:57:23;;;;;;;49.75;23.07;;;;;;;-2.67;88.93;99958.23;1865187;74;22617;-54
2020/12/12 07:59:51;;;;;;;51.92;25.37;;;;;;;-2.72;88.89;99959.95;1865570;74;20973;-53
2020/12/12 08:02:19;;;;;;;51.33;24.65;;;;;;;-2.72;89.01;99965.67;1841222;75;22029;-55
2020/12/12 08:04:48;;;;;;;45.98;21.77;;;;;;;-2.73;89.06;99956.88;1833945;75;21017;-54
2020/12/12 08:07:19;;;;;;;39.50;21.60;;;;;;;-2.69;89.14;99962.63;1831829;75;21426;-51
2020/12/12 08:09:48;;;;;;;;;;;;;;;-2.62;89.04;99963.98;1840621;75;21488;-52
2020/12/12 08:12:31;;;;;;;43.80;21.10;;;;;;;-2.62;89.07;99962.67;1839393;75;20695;-55
2020/12/12 08:15:12;;;;;;;45.95;22.65;;;;;;;-2.62;89.02;99957.39;1836328;75;21192;-54
2020/12/12 08:17:38;;;;;;;41.15;21.45;;;;;;;-2.62;89.02;99957.39;1834636;75;20985;-54
2020/12/12 08:20:05;;;;;;;43.98;24.52;;;;;;;-2.62;89.10;99960.91;1841575;75;21378;-54
2020/12/12 08:22:35;;;;;;;51.63;23.98;;;;;;;-2.64;89.17;99960.91;1835035;75;21151;-53
2020/12/12 08:25:06;;;;;;;43.52;21.87;;;;;;;-2.66;89.39;99960.03;1833841;75;20958;-56
2020/12/12 08:27:34;;;;;;;44.10;25.43;;;;;;;-2.65;89.46;99956.51;1834771;75;21260;-54
2020/12/12 08:30:07;;;;;;;42.23;22.40;;;;;;;-2.62;89.65;99962.67;1834950;75;21588;-53
2020/12/12 08:32:39;;;;;;;42.62;22.05;;;;;;;-2.62;89.66;99958.70;1834486;75;21119;-53
2020/12/12 08:35:17;;;;;;;43.17;22.02;;;;;;;-2.60;89.68;99957.86;1839060;75;21128;-53
2020/12/12 08:38:06;;;;;;;37.23;21.20;;;;;;;-2.59;89.84;99954.78;1836441;75;20914;-53
2020/12/12 08:40:44;;;;;;;36.05;20.05;;;;;;;-2.58;89.98;99948.63;1836135;75;21651;-53
2020/12/12 08:43:12;;;;;;;42.73;21.23;;;;;;;-2.58;89.93;99943.34;1835712;75;20981;-52
2020/12/12 08:45:46;;;;;;;41.68;21.70;;;;;;;-2.55;90.10;99951.29;1836754;75;21534;-51
2020/12/12 08:48:14;;;;;;;38.73;19.77;;;;;;;-2.52;90.05;99949.97;1836359;75;20981;-52
2020/12/12 08:50:47;;;;;;;35.05;20.00;;;;;;;-2.49;90.08;99948.68;1838658;75;21504;-55
2020/12/12 08:53:24;;;;;;;42.38;22.27;;;;;;;-2.49;90.01;99948.68;1835130;75;21394;-51
2020/12/12 08:56:06;;;;;;;35.85;20.20;;;;;;;-2.49;90.06;99943.40;1834081;75;20990;-50
2020/12/12 08:58:51;;;;;;;41.05;21.95;;;;;;;-2.51;90.23;99938.09;1839572;75;21533;-51
2020/12/12 09:01:44;;;;;;;40.43;22.13;;;;;;;-2.50;90.40;99937.23;1839536;75;21047;-50
2020/12/12 09:04:20;;;;;;;38.60;20.70;;;;;;;-2.50;90.51;99941.64;1838994;75;20965;-50
2020/12/12 09:06:58;;;;;;;37.73;21.07;;;;;;;-2.48;90.71;99930.64;1839059;75;21368;-53
2020/12/12 09:09:31;;;;;;;37.85;21.25;;;;;;;-2.44;90.72;99931.11;1843869;75;21131;-50
2020/12/12 09:12:08;;;;;;;42.98;21.57;;;;;;;-2.41;90.78;99933.74;1839799;75;21004;-51
2020/12/12 09:14:44;;;;;;;34.63;20.60;;;;;;;-2.41;90.79;99933.74;1845775;75;21147;-52
2020/12/12 09:17:16;;;;;;;40.55;22.07;;;;;;;-2.43;90.87;99925.83;1842694;75;20989;-55
2020/12/12 09:19:52;;;;;;;39.45;21.15;;;;;;;-2.34;91.05;99922.36;1826433;76;22754;-55
2020/12/12 09:22:20;;;;;;;35.92;19.73;;;;;;;-2.38;91.01;99926.73;1794552;77;21005;-55
2020/12/12 09:24:48;;;;;;;38.05;20.60;;;;;;;-2.37;91.04;99922.33;1791476;77;21380;-57
2020/12/12 09:27:15;;;;;;;36.63;20.05;;;;;;;-2.35;91.03;99923.20;1794490;77;21057;-56
2020/12/12 09:29:44;;;;;;;36.48;20.08;;;;;;;-2.34;91.03;99922.36;1793221;77;21072;-56
2020/12/12 09:32:13;;;;;;;40.33;21.07;;;;;;;-2.33;91.18;99918.83;1786610;77;21092;-56
2020/12/12 09:34:41;;;;;;;40.95;20.97;;;;;;;-2.33;91.16;99916.19;1792315;77;20930;-53
2020/12/12 09:37:09;;;;;;;34.25;19.95;;;;;;;-2.33;91.17;99926.75;1788483;77;21491;-55
2020/12/12 09:39:37;;;;;;;35.90;19.57;;;;;;;-2.31;91.09;99919.70;1791733;77;21026;-55
2020/12/12 09:42:04;;;;;;;28.70;18.60;;;;;;;-2.34;90.56;99921.03;1796217;77;20938;-57
2020/12/12 09:44:32;;;;;;;31.95;17.48;;;;;;;-2.36;90.21;99913.52;1791311;77;20988;-59
2020/12/12 09:47:00;;;;;;;41.08;21.52;;;;;;;-2.36;89.86;99913.52;1795933;77;21088;-55
2020/12/12 09:49:28;;;;;;;32.40;18.17;;;;;;;-2.34;89.89;99917.07;1797026;77;21349;-54
2020/12/12 09:51:56;;;;;;;36.83;20.88;;;;;;;-2.36;89.37;99899.00;1793660;77;21194;-54
2020/12/12 09:54:24;;;;;;;42.53;22.87;;;;;;;-2.35;89.21;99902.08;1794209;77;21100;-56
2020/12/12 09:56:52;;;;;;;37.15;20.95;;;;;;;-2.35;89.05;99899.44;1787118;77;21569;-54
2020/12/12 09:59:19;;;;;;;39.50;22.70;;;;;;;-2.38;88.87;99896.80;1801994;77;21549;-55
2020/12/12 10:01:47;;;;;;;39.78;21.75;;;;;;;-2.40;89.01;99901.17;1798968;77;22232;-62
2020/12/12 10:04:15;;;;;;;36.83;20.50;;;;;;;-2.41;88.62;99888.85;1791665;77;21703;-57
2020/12/12 10:06:43;;;;;;;34.30;20.05;;;;;;;-2.44;88.53;99886.22;1793140;77;21171;-50
2020/12/12 10:09:11;;;;;;;33.15;18.90;;;;;;;-2.44;88.46;99879.61;1790742;77;21120;-49
2020/12/12 10:11:41;;;;;;;31.27;18.20;;;;;;;-2.50;88.24;99873.00;1791055;78;21163;-51
2020/12/12 10:14:10;;;;;;;31.00;18.50;;;;;;;-2.55;88.35;99874.29;1789906;77;22114;-51
2020/12/12 10:16:38;;;;;;;34.40;18.37;;;;;;;-2.59;88.42;99878.22;1792821;77;21587;-49
2020/12/12 10:19:06;;;;;;;37.33;21.00;;;;;;;-2.59;88.75;99883.50;1789125;77;21120;-52
2020/12/12 10:21:35;;;;;;;42.40;21.77;;;;;;;-2.58;89.05;99879.55;1791638;77;21032;-52
2020/12/12 10:24:03;;;;;;;43.50;22.73;;;;;;;-2.54;88.91;99881.77;1792415;77;21132;-53
2020/12/12 10:26:30;;;;;;;37.90;18.77;;;;;;;-2.49;88.53;99866.83;1789695;77;21686;-59
2020/12/12 10:28:58;;;;;;;36.15;20.08;;;;;;;-2.48;88.26;99876.07;1789449;77;21176;-61
2020/12/12 10:31:25;;;;;;;40.88;18.77;;;;;;;-2.47;87.94;99870.34;1787700;77;21013;-52
2020/12/12 10:33:54;;;;;;;40.12;19.57;;;;;;;-2.46;87.85;99862.86;1789410;77;21124;-51
2020/12/12 10:36:23;;;;;;;36.15;19.30;;;;;;;-2.48;87.72;99852.75;1789740;77;21073;-51
2020/12/12 10:38:52;;;;;;;36.50;19.32;;;;;;;-2.55;87.72;99867.69;1787037;77;21363;-52
2020/12/12 10:41:20;;;;;;;45.12;20.85;;;;;;;-2.53;87.99;99862.41;1790946;77;21683;-53
2020/12/12 10:43:49;;;;;;;46.08;23.20;;;;;;;-2.55;87.86;99861.53;1790449;77;21120;-51
2020/12/12 10:46:16;;;;;;;42.40;19.55;;;;;;;-2.60;88.03;99851.39;1789582;77;21638;-51
2020/12/12 10:48:45;;;;;;;35.90;18.52;;;;;;;-2.60;88.02;99857.98;1784864;77;21492;-52
2020/12/12 10:51:17;;;;;;;39.38;20.12;;;;;;;-2.58;88.01;99859.74;1786644;77;21928;-50
2020/12/12 10:53:45;;;;;;;38.15;20.75;;;;;;;-2.58;87.93;99854.46;1758264;77;21584;-52
2020/12/12 10:56:13;;;;;;;47.10;20.30;;;;;;;-2.59;88.24;99846.55;1787874;77;21131;-51
2020/12/12 10:58:41;;;;;;;37.90;20.05;;;;;;;-2.56;88.08;99858.42;1790311;77;20974;-54
2020/12/12 11:01:09;;;;;;;33.28;18.23;;;;;;;-2.60;88.06;99855.34;1789380;77;21528;-54
2020/12/12 11:03:37;;;;;;;37.65;18.82;;;;;;;-2.54;88.41;99855.37;1766554;79;22683;-56
2020/12/12 11:06:05;;;;;;;34.90;19.12;;;;;;;-2.51;88.47;99839.52;1794008;77;21601;-53
2020/12/12 11:08:33;;;;;;;37.67;19.70;;;;;;;-2.50;88.21;99846.59;1788246;77;21525;-53
2020/12/12 11:11:01;;;;;;;37.67;20.37;;;;;;;-2.56;88.15;99851.81;1793533;77;21088;-56
2020/12/12 11:13:29;;;;;;;36.25;18.52;;;;;;;-2.60;88.30;99855.34;1791485;77;21502;-53
2020/12/12 11:15:57;;;;;;;38.83;19.02;;;;;;;-2.62;88.61;99849.16;1788871;77;21359;-54
2020/12/12 11:18:25;;;;;;;34.58;19.60;;;;;;;-2.64;88.72;99843.88;1793976;77;21061;-55
2020/12/12 11:20:52;;;;;;;36.50;19.07;;;;;;;-2.66;88.81;99849.16;1801267;77;21020;-55
2020/12/12 11:23:20;;;;;;;29.48;16.45;;;;;;;-2.62;88.93;99848.72;1802262;78;21132;-56
2020/12/12 11:25:48;;;;;;;38.00;18.52;;;;;;;-2.60;88.59;99844.79;1804653;78;21099;-55
2020/12/12 11:28:16;;;;;;;35.40;19.45;;;;;;;-2.62;88.53;99851.80;1799394;78;21625;-48
2020/12/12 11:30:45;;;;;;;31.25;17.17;;;;;;;-2.66;88.57;99857.08;1796703;78;21115;-54